sensor_id;sensor_type;location;lat;lon;timestamp;P1;durP1;ratioP1;P2;durP2;ratioP2
62092;SDS011;59819;52.976;6.846;2022-12-07T00:01:23;2.97;;;1.95;;
62092;SDS011;59819;52.976;6.846;2022-12-07T00:03:51;4.53;;;2.05;;
62092;SDS011;59819;52.976;6.846;2022-12-07T00:06:17;5.57;;;2.10;;
62092;SDS011;59819;52.976;6.846;2022-12-07T00:08:44;6.60;;;1.95;;
62092;SDS011;59819;52.976;6.846;2022-12-07T00:11:11;3.35;;;1.95;;
62092;SDS011;59819;52.976;6.846;2022-12-07T00:13:38;4.82;;;2.20;;
62092;SDS011;59819;52.976;6.846;2022-12-07T00:16:08;4.80;;;1.92;;
62092;SDS011;59819;52.976;6.846;2022-12-07T00:18:35;4.40;;;1.88;;
62092;SDS011;59819;52.976;6.846;2022-12-07T00:21:02;3.00;;;1.80;;
62092;SDS011;59819;52.976;6.846;2022-12-07T00:23:28;3.95;;;1.50;;
62092;SDS011;59819;52.976;6.846;2022-12-07T00:25:54;3.92;;;1.63;;
62092;SDS011;59819;52.976;6.846;2022-12-07T00:28:20;4.60;;;1.30;;
62092;SDS011;59819;52.976;6.846;2022-12-07T00:30:46;4.57;;;1.17;;
62092;SDS011;59819;52.976;6.846;2022-12-07T00:33:12;2.03;;;1.23;;
62092;SDS011;59819;52.976;6.846;2022-12-07T00:35:38;5.07;;;1.30;;
62092;SDS011;59819;52.976;6.846;2022-12-07T00:38:04;3.78;;;1.30;;
62092;SDS011;59819;52.976;6.846;2022-12-07T00:40:30;4.18;;;1.20;;
62092;SDS011;59819;52.976;6.846;2022-12-07T00:42:56;2.25;;;1.00;;
62092;SDS011;59819;52.976;6.846;2022-12-07T00:45:22;1.52;;;0.90;;
62092;SDS011;59819;52.976;6.846;2022-12-07T00:47:48;1.70;;;0.80;;
62092;SDS011;59819;52.976;6.846;2022-12-07T00:50:14;5.65;;;1.10;;
62092;SDS011;59819;52.976;6.846;2022-12-07T00:52:41;2.63;;;0.90;;
62092;SDS011;59819;52.976;6.846;2022-12-07T00:55:07;2.80;;;1.10;;
62092;SDS011;59819;52.976;6.846;2022-12-07T00:57:33;1.23;;;0.90;;
62092;SDS011;59819;52.976;6.846;2022-12-07T00:59:59;3.38;;;1.02;;
62092;SDS011;59819;52.976;6.846;2022-12-07T01:02:25;2.28;;;1.08;;
62092;SDS011;59819;52.976;6.846;2022-12-07T01:04:51;6.15;;;0.90;;
62092;SDS011;59819;52.976;6.846;2022-12-07T01:07:17;3.50;;;1.45;;
62092;SDS011;59819;52.976;6.846;2022-12-07T01:09:43;2.83;;;0.90;;
62092;SDS011;59819;52.976;6.846;2022-12-07T01:12:10;1.75;;;0.93;;
62092;SDS011;59819;52.976;6.846;2022-12-07T01:14:36;0.10;;;0.10;;
62092;SDS011;59819;52.976;6.846;2022-12-07T01:17:02;2.75;;;0.90;;
62092;SDS011;59819;52.976;6.846;2022-12-07T01:19:28;3.40;;;0.90;;
62092;SDS011;59819;52.976;6.846;2022-12-07T01:21:54;3.00;;;0.90;;
62092;SDS011;59819;52.976;6.846;2022-12-07T01:24:20;3.00;;;0.85;;
62092;SDS011;59819;52.976;6.846;2022-12-07T01:26:48;2.30;;;0.85;;
62092;SDS011;59819;52.976;6.846;2022-12-07T01:29:14;3.60;;;0.80;;
62092;SDS011;59819;52.976;6.846;2022-12-07T01:31:40;3.55;;;1.42;;
62092;SDS011;59819;52.976;6.846;2022-12-07T01:34:07;3.33;;;0.95;;
62092;SDS011;59819;52.976;6.846;2022-12-07T01:36:34;3.65;;;1.15;;
62092;SDS011;59819;52.976;6.846;2022-12-07T01:39:03;1.95;;;1.02;;
62092;SDS011;59819;52.976;6.846;2022-12-07T01:41:30;2.33;;;0.90;;
62092;SDS011;59819;52.976;6.846;2022-12-07T01:46:43;2.28;;;0.85;;
62092;SDS011;59819;52.976;6.846;2022-12-07T01:49:10;2.92;;;1.10;;
62092;SDS011;59819;52.976;6.846;2022-12-07T01:51:38;4.57;;;1.00;;
62092;SDS011;59819;52.976;6.846;2022-12-07T01:54:06;2.38;;;1.00;;
62092;SDS011;59819;52.976;6.846;2022-12-07T01:56:32;2.45;;;0.93;;
62092;SDS011;59819;52.976;6.846;2022-12-07T01:58:59;3.47;;;0.80;;
62092;SDS011;59819;52.976;6.846;2022-12-07T02:01:26;3.28;;;0.70;;
62092;SDS011;59819;52.976;6.846;2022-12-07T02:03:52;2.83;;;0.70;;
62092;SDS011;59819;52.976;6.846;2022-12-07T02:06:19;3.60;;;0.90;;
62092;SDS011;59819;52.976;6.846;2022-12-07T02:08:47;1.88;;;0.60;;
62092;SDS011;59819;52.976;6.846;2022-12-07T02:11:13;3.75;;;0.73;;
62092;SDS011;59819;52.976;6.846;2022-12-07T02:13:39;3.22;;;0.75;;
62092;SDS011;59819;52.976;6.846;2022-12-07T02:29:23;3.05;;;0.57;;
62092;SDS011;59819;52.976;6.846;2022-12-07T02:32:00;0.93;;;0.35;;
62092;SDS011;59819;52.976;6.846;2022-12-07T02:35:30;2.90;;;0.47;;
62092;SDS011;59819;52.976;6.846;2022-12-07T02:39:59;1.58;;;0.47;;
62092;SDS011;59819;52.976;6.846;2022-12-07T02:42:36;3.75;;;0.75;;
62092;SDS011;59819;52.976;6.846;2022-12-07T02:45:05;1.35;;;0.40;;
62092;SDS011;59819;52.976;6.846;2022-12-07T02:47:31;3.25;;;0.40;;
62092;SDS011;59819;52.976;6.846;2022-12-07T02:49:59;1.33;;;0.50;;
62092;SDS011;59819;52.976;6.846;2022-12-07T02:52:25;3.28;;;0.50;;
62092;SDS011;59819;52.976;6.846;2022-12-07T02:54:51;3.28;;;0.50;;
62092;SDS011;59819;52.976;6.846;2022-12-07T02:59:54;0.65;;;0.40;;
62092;SDS011;59819;52.976;6.846;2022-12-07T03:02:42;0.75;;;0.50;;
62092;SDS011;59819;52.976;6.846;2022-12-07T03:05:21;2.17;;;0.40;;
62092;SDS011;59819;52.976;6.846;2022-12-07T03:13:04;3.03;;;0.50;;
62092;SDS011;59819;52.976;6.846;2022-12-07T03:15:46;1.75;;;0.60;;
62092;SDS011;59819;52.976;6.846;2022-12-07T03:18:16;2.85;;;0.40;;
62092;SDS011;59819;52.976;6.846;2022-12-07T03:20:46;3.67;;;0.50;;
62092;SDS011;59819;52.976;6.846;2022-12-07T03:23:14;4.18;;;0.65;;
62092;SDS011;59819;52.976;6.846;2022-12-07T03:25:42;5.53;;;0.60;;
62092;SDS011;59819;52.976;6.846;2022-12-07T03:28:10;1.05;;;0.47;;
62092;SDS011;59819;52.976;6.846;2022-12-07T03:30:54;2.65;;;0.50;;
62092;SDS011;59819;52.976;6.846;2022-12-07T03:33:42;2.55;;;0.73;;
62092;SDS011;59819;52.976;6.846;2022-12-07T03:36:12;1.40;;;0.40;;
62092;SDS011;59819;52.976;6.846;2022-12-07T03:38:42;2.45;;;0.65;;
62092;SDS011;59819;52.976;6.846;2022-12-07T03:41:12;2.33;;;0.52;;
62092;SDS011;59819;52.976;6.846;2022-12-07T03:43:39;1.73;;;0.40;;
62092;SDS011;59819;52.976;6.846;2022-12-07T03:48:54;1.45;;;0.40;;
62092;SDS011;59819;52.976;6.846;2022-12-07T03:51:24;2.75;;;0.55;;
62092;SDS011;59819;52.976;6.846;2022-12-07T03:53:58;2.28;;;0.50;;
62092;SDS011;59819;52.976;6.846;2022-12-07T03:56:26;0.32;;;0.30;;
62092;SDS011;59819;52.976;6.846;2022-12-07T03:58:53;0.57;;;0.32;;
62092;SDS011;59819;52.976;6.846;2022-12-07T04:01:19;3.00;;;0.40;;
62092;SDS011;59819;52.976;6.846;2022-12-07T04:03:46;3.50;;;0.50;;
62092;SDS011;59819;52.976;6.846;2022-12-07T04:06:12;2.35;;;0.75;;
62092;SDS011;59819;52.976;6.846;2022-12-07T04:08:38;3.63;;;0.40;;
62092;SDS011;59819;52.976;6.846;2022-12-07T04:11:04;4.18;;;0.40;;
62092;SDS011;59819;52.976;6.846;2022-12-07T04:13:30;1.20;;;0.40;;
62092;SDS011;59819;52.976;6.846;2022-12-07T04:16:16;2.30;;;0.30;;
62092;SDS011;59819;52.976;6.846;2022-12-07T04:18:42;1.83;;;0.60;;
62092;SDS011;59819;52.976;6.846;2022-12-07T04:21:08;2.35;;;0.40;;
62092;SDS011;59819;52.976;6.846;2022-12-07T04:23:34;1.23;;;0.45;;
62092;SDS011;59819;52.976;6.846;2022-12-07T04:26:00;0.90;;;0.38;;
62092;SDS011;59819;52.976;6.846;2022-12-07T04:28:26;3.47;;;0.40;;
62092;SDS011;59819;52.976;6.846;2022-12-07T04:30:52;2.30;;;0.47;;
62092;SDS011;59819;52.976;6.846;2022-12-07T04:33:18;2.42;;;0.38;;
62092;SDS011;59819;52.976;6.846;2022-12-07T04:35:44;1.20;;;0.40;;
62092;SDS011;59819;52.976;6.846;2022-12-07T04:38:10;1.77;;;0.40;;
62092;SDS011;59819;52.976;6.846;2022-12-07T04:40:36;1.55;;;0.43;;
62092;SDS011;59819;52.976;6.846;2022-12-07T04:43:02;1.40;;;0.52;;
62092;SDS011;59819;52.976;6.846;2022-12-07T04:45:29;1.75;;;0.45;;
62092;SDS011;59819;52.976;6.846;2022-12-07T04:47:56;0.60;;;0.45;;
62092;SDS011;59819;52.976;6.846;2022-12-07T04:50:22;1.30;;;0.40;;
62092;SDS011;59819;52.976;6.846;2022-12-07T04:52:48;1.58;;;0.40;;
62092;SDS011;59819;52.976;6.846;2022-12-07T04:55:14;0.70;;;0.22;;
62092;SDS011;59819;52.976;6.846;2022-12-07T04:57:40;0.47;;;0.22;;
62092;SDS011;59819;52.976;6.846;2022-12-07T05:00:06;1.10;;;0.30;;
62092;SDS011;59819;52.976;6.846;2022-12-07T05:02:32;1.05;;;0.40;;
62092;SDS011;59819;52.976;6.846;2022-12-07T05:04:59;6.05;;;0.40;;
62092;SDS011;59819;52.976;6.846;2022-12-07T05:07:25;0.65;;;0.30;;
62092;SDS011;59819;52.976;6.846;2022-12-07T05:09:51;0.57;;;0.30;;
62092;SDS011;59819;52.976;6.846;2022-12-07T05:12:17;2.97;;;0.50;;
62092;SDS011;59819;52.976;6.846;2022-12-07T05:14:43;1.48;;;0.32;;
62092;SDS011;59819;52.976;6.846;2022-12-07T05:17:09;2.58;;;0.40;;
62092;SDS011;59819;52.976;6.846;2022-12-07T05:19:36;2.70;;;0.50;;
62092;SDS011;59819;52.976;6.846;2022-12-07T05:22:02;5.10;;;0.47;;
62092;SDS011;59819;52.976;6.846;2022-12-07T05:24:28;3.13;;;0.50;;
62092;SDS011;59819;52.976;6.846;2022-12-07T05:26:54;1.63;;;0.50;;
62092;SDS011;59819;52.976;6.846;2022-12-07T05:29:20;1.67;;;0.43;;
62092;SDS011;59819;52.976;6.846;2022-12-07T05:31:46;3.15;;;0.60;;
62092;SDS011;59819;52.976;6.846;2022-12-07T05:34:12;1.65;;;0.50;;
62092;SDS011;59819;52.976;6.846;2022-12-07T05:36:39;1.25;;;0.57;;
62092;SDS011;59819;52.976;6.846;2022-12-07T05:39:05;1.98;;;0.40;;
62092;SDS011;59819;52.976;6.846;2022-12-07T05:41:32;2.35;;;0.50;;
62092;SDS011;59819;52.976;6.846;2022-12-07T05:44:17;2.50;;;0.40;;
62092;SDS011;59819;52.976;6.846;2022-12-07T05:46:43;2.08;;;0.40;;
62092;SDS011;59819;52.976;6.846;2022-12-07T05:49:09;3.33;;;0.40;;
62092;SDS011;59819;52.976;6.846;2022-12-07T05:51:35;2.05;;;0.45;;
62092;SDS011;59819;52.976;6.846;2022-12-07T05:54:01;1.65;;;0.40;;
62092;SDS011;59819;52.976;6.846;2022-12-07T05:56:27;2.40;;;0.50;;
62092;SDS011;59819;52.976;6.846;2022-12-07T05:58:53;1.90;;;0.38;;
62092;SDS011;59819;52.976;6.846;2022-12-07T06:01:38;3.05;;;0.47;;
62092;SDS011;59819;52.976;6.846;2022-12-07T06:04:05;1.42;;;0.60;;
62092;SDS011;59819;52.976;6.846;2022-12-07T06:06:31;2.08;;;0.55;;
62092;SDS011;59819;52.976;6.846;2022-12-07T06:08:57;1.83;;;0.40;;
62092;SDS011;59819;52.976;6.846;2022-12-07T06:11:23;3.78;;;0.40;;
62092;SDS011;59819;52.976;6.846;2022-12-07T06:14:07;1.42;;;0.45;;
62092;SDS011;59819;52.976;6.846;2022-12-07T06:16:33;1.67;;;0.38;;
62092;SDS011;59819;52.976;6.846;2022-12-07T06:18:59;0.77;;;0.45;;
62092;SDS011;59819;52.976;6.846;2022-12-07T06:21:26;1.77;;;0.40;;
62092;SDS011;59819;52.976;6.846;2022-12-07T06:23:52;2.20;;;0.40;;
62092;SDS011;59819;52.976;6.846;2022-12-07T06:26:18;1.33;;;0.35;;
62092;SDS011;59819;52.976;6.846;2022-12-07T06:28:44;2.25;;;0.50;;
62092;SDS011;59819;52.976;6.846;2022-12-07T06:31:10;1.27;;;0.47;;
62092;SDS011;59819;52.976;6.846;2022-12-07T06:33:36;2.38;;;0.52;;
62092;SDS011;59819;52.976;6.846;2022-12-07T06:36:02;0.10;;;0.10;;
62092;SDS011;59819;52.976;6.846;2022-12-07T06:38:28;2.33;;;0.57;;
62092;SDS011;59819;52.976;6.846;2022-12-07T06:40:54;2.42;;;0.45;;
62092;SDS011;59819;52.976;6.846;2022-12-07T06:43:20;2.05;;;0.38;;
62092;SDS011;59819;52.976;6.846;2022-12-07T06:45:46;2.67;;;0.50;;
62092;SDS011;59819;52.976;6.846;2022-12-07T06:48:12;4.60;;;0.60;;
62092;SDS011;59819;52.976;6.846;2022-12-07T06:50:39;1.58;;;0.60;;
62092;SDS011;59819;52.976;6.846;2022-12-07T06:53:05;2.10;;;0.32;;
62092;SDS011;59819;52.976;6.846;2022-12-07T06:55:31;1.58;;;0.60;;
62092;SDS011;59819;52.976;6.846;2022-12-07T06:57:57;2.47;;;0.60;;
62092;SDS011;59819;52.976;6.846;2022-12-07T07:00:23;2.55;;;0.60;;
62092;SDS011;59819;52.976;6.846;2022-12-07T07:02:49;3.15;;;0.60;;
62092;SDS011;59819;52.976;6.846;2022-12-07T07:05:15;3.83;;;0.50;;
62092;SDS011;59819;52.976;6.846;2022-12-07T07:07:41;1.55;;;0.52;;
62092;SDS011;59819;52.976;6.846;2022-12-07T07:10:07;6.20;;;0.75;;
62092;SDS011;59819;52.976;6.846;2022-12-07T07:12:34;3.05;;;0.60;;
62092;SDS011;59819;52.976;6.846;2022-12-07T07:15:00;1.50;;;0.40;;
62092;SDS011;59819;52.976;6.846;2022-12-07T07:17:26;2.72;;;0.60;;
62092;SDS011;59819;52.976;6.846;2022-12-07T07:19:52;1.88;;;0.40;;
62092;SDS011;59819;52.976;6.846;2022-12-07T07:22:18;3.67;;;0.93;;
62092;SDS011;59819;52.976;6.846;2022-12-07T07:24:44;4.15;;;0.60;;
62092;SDS011;59819;52.976;6.846;2022-12-07T07:27:11;2.33;;;0.50;;
62092;SDS011;59819;52.976;6.846;2022-12-07T07:29:37;1.50;;;0.50;;
62092;SDS011;59819;52.976;6.846;2022-12-07T07:32:03;1.92;;;0.50;;
62092;SDS011;59819;52.976;6.846;2022-12-07T07:34:29;2.67;;;0.60;;
62092;SDS011;59819;52.976;6.846;2022-12-07T07:36:55;1.65;;;0.52;;
62092;SDS011;59819;52.976;6.846;2022-12-07T07:39:21;2.67;;;0.60;;
62092;SDS011;59819;52.976;6.846;2022-12-07T07:41:47;1.45;;;0.57;;
62092;SDS011;59819;52.976;6.846;2022-12-07T07:44:13;2.97;;;0.68;;
62092;SDS011;59819;52.976;6.846;2022-12-07T07:46:39;3.95;;;0.60;;
62092;SDS011;59819;52.976;6.846;2022-12-07T07:49:05;2.63;;;0.52;;
62092;SDS011;59819;52.976;6.846;2022-12-07T07:51:31;1.08;;;0.50;;
62092;SDS011;59819;52.976;6.846;2022-12-07T07:53:57;4.00;;;0.70;;
62092;SDS011;59819;52.976;6.846;2022-12-07T07:56:23;3.70;;;0.70;;
62092;SDS011;59819;52.976;6.846;2022-12-07T07:58:52;3.22;;;0.80;;
62092;SDS011;59819;52.976;6.846;2022-12-07T08:01:19;2.17;;;0.60;;
62092;SDS011;59819;52.976;6.846;2022-12-07T08:03:48;2.80;;;0.50;;
62092;SDS011;59819;52.976;6.846;2022-12-07T08:06:14;1.90;;;0.60;;
62092;SDS011;59819;52.976;6.846;2022-12-07T08:08:41;1.67;;;0.50;;
62092;SDS011;59819;52.976;6.846;2022-12-07T08:11:07;0.85;;;0.40;;
62092;SDS011;59819;52.976;6.846;2022-12-07T08:13:34;1.85;;;0.43;;
62092;SDS011;59819;52.976;6.846;2022-12-07T08:16:04;1.10;;;0.60;;
62092;SDS011;59819;52.976;6.846;2022-12-07T08:18:34;3.08;;;0.50;;
62092;SDS011;59819;52.976;6.846;2022-12-07T08:21:00;5.50;;;0.70;;
62092;SDS011;59819;52.976;6.846;2022-12-07T08:23:27;1.05;;;0.40;;
62092;SDS011;59819;52.976;6.846;2022-12-07T08:25:53;3.47;;;0.57;;
62092;SDS011;59819;52.976;6.846;2022-12-07T08:28:19;1.70;;;0.60;;
62092;SDS011;59819;52.976;6.846;2022-12-07T08:30:45;1.88;;;0.45;;
62092;SDS011;59819;52.976;6.846;2022-12-07T08:33:11;1.33;;;0.52;;
62092;SDS011;59819;52.976;6.846;2022-12-07T08:35:37;1.90;;;0.50;;
62092;SDS011;59819;52.976;6.846;2022-12-07T08:38:04;1.83;;;0.50;;
62092;SDS011;59819;52.976;6.846;2022-12-07T08:40:30;3.13;;;0.60;;
62092;SDS011;59819;52.976;6.846;2022-12-07T08:42:56;0.90;;;0.50;;
62092;SDS011;59819;52.976;6.846;2022-12-07T08:45:22;2.05;;;0.52;;
62092;SDS011;59819;52.976;6.846;2022-12-07T08:47:50;2.10;;;0.50;;
62092;SDS011;59819;52.976;6.846;2022-12-07T08:50:18;2.20;;;0.70;;
62092;SDS011;59819;52.976;6.846;2022-12-07T08:52:44;4.03;;;0.63;;
62092;SDS011;59819;52.976;6.846;2022-12-07T08:55:14;3.45;;;0.60;;
62092;SDS011;59819;52.976;6.846;2022-12-07T08:57:41;2.08;;;0.68;;
62092;SDS011;59819;52.976;6.846;2022-12-07T09:00:11;4.10;;;0.90;;
62092;SDS011;59819;52.976;6.846;2022-12-07T09:02:37;5.45;;;0.80;;
62092;SDS011;59819;52.976;6.846;2022-12-07T09:05:03;5.38;;;0.82;;
62092;SDS011;59819;52.976;6.846;2022-12-07T09:07:31;1.77;;;0.70;;
62092;SDS011;59819;52.976;6.846;2022-12-07T09:09:58;2.85;;;0.70;;
62092;SDS011;59819;52.976;6.846;2022-12-07T09:12:24;1.90;;;0.98;;
62092;SDS011;59819;52.976;6.846;2022-12-07T09:14:50;3.53;;;0.93;;
62092;SDS011;59819;52.976;6.846;2022-12-07T09:17:16;4.15;;;0.90;;
62092;SDS011;59819;52.976;6.846;2022-12-07T09:19:43;1.52;;;0.80;;
62092;SDS011;59819;52.976;6.846;2022-12-07T09:22:09;3.00;;;0.98;;
62092;SDS011;59819;52.976;6.846;2022-12-07T09:24:35;4.35;;;0.93;;
62092;SDS011;59819;52.976;6.846;2022-12-07T09:27:01;5.40;;;1.00;;
62092;SDS011;59819;52.976;6.846;2022-12-07T09:29:28;1.42;;;0.90;;
62092;SDS011;59819;52.976;6.846;2022-12-07T09:31:54;2.40;;;0.80;;
62092;SDS011;59819;52.976;6.846;2022-12-07T09:34:20;2.35;;;0.90;;
62092;SDS011;59819;52.976;6.846;2022-12-07T09:36:47;1.83;;;0.90;;
62092;SDS011;59819;52.976;6.846;2022-12-07T09:39:13;4.65;;;1.00;;
62092;SDS011;59819;52.976;6.846;2022-12-07T09:41:40;4.60;;;0.73;;
62092;SDS011;59819;52.976;6.846;2022-12-07T09:44:09;2.58;;;0.93;;
62092;SDS011;59819;52.976;6.846;2022-12-07T09:46:38;1.83;;;0.80;;
62092;SDS011;59819;52.976;6.846;2022-12-07T09:49:05;4.57;;;0.88;;
62092;SDS011;59819;52.976;6.846;2022-12-07T09:51:31;3.15;;;0.90;;
62092;SDS011;59819;52.976;6.846;2022-12-07T09:53:57;3.55;;;1.00;;
62092;SDS011;59819;52.976;6.846;2022-12-07T09:56:25;4.15;;;0.93;;
62092;SDS011;59819;52.976;6.846;2022-12-07T09:58:54;5.78;;;1.20;;
62092;SDS011;59819;52.976;6.846;2022-12-07T10:01:23;3.25;;;0.90;;
62092;SDS011;59819;52.976;6.846;2022-12-07T10:06:15;2.17;;;1.08;;
62092;SDS011;59819;52.976;6.846;2022-12-07T10:08:42;2.80;;;0.65;;
62092;SDS011;59819;52.976;6.846;2022-12-07T10:11:08;3.10;;;0.88;;
62092;SDS011;59819;52.976;6.846;2022-12-07T10:13:48;3.33;;;0.98;;
62092;SDS011;59819;52.976;6.846;2022-12-07T10:16:57;4.20;;;0.80;;
62092;SDS011;59819;52.976;6.846;2022-12-07T10:19:17;3.30;;;1.10;;
62092;SDS011;59819;52.976;6.846;2022-12-07T10:22:01;4.78;;;0.90;;
62092;SDS011;59819;52.976;6.846;2022-12-07T10:24:28;4.78;;;1.10;;
62092;SDS011;59819;52.976;6.846;2022-12-07T10:26:54;4.25;;;1.52;;
62092;SDS011;59819;52.976;6.846;2022-12-07T10:36:52;3.53;;;0.80;;
62092;SDS011;59819;52.976;6.846;2022-12-07T10:39:20;5.32;;;0.80;;
62092;SDS011;59819;52.976;6.846;2022-12-07T10:41:54;1.85;;;0.80;;
62092;SDS011;59819;52.976;6.846;2022-12-07T10:44:22;6.38;;;1.00;;
62092;SDS011;59819;52.976;6.846;2022-12-07T10:47:01;2.20;;;0.93;;
62092;SDS011;59819;52.976;6.846;2022-12-07T10:56:58;1.65;;;0.50;;
62092;SDS011;59819;52.976;6.846;2022-12-07T10:59:42;2.42;;;0.90;;
62092;SDS011;59819;52.976;6.846;2022-12-07T11:10:01;3.60;;;0.70;;
62092;SDS011;59819;52.976;6.846;2022-12-07T11:12:35;1.63;;;0.65;;
62092;SDS011;59819;52.976;6.846;2022-12-07T11:20:40;4.22;;;0.88;;
62092;SDS011;59819;52.976;6.846;2022-12-07T11:26:02;5.45;;;0.75;;
62092;SDS011;59819;52.976;6.846;2022-12-07T11:31:17;2.15;;;0.73;;
62092;SDS011;59819;52.976;6.846;2022-12-07T11:33:47;1.95;;;0.50;;
62092;SDS011;59819;52.976;6.846;2022-12-07T11:36:26;2.30;;;0.75;;
62092;SDS011;59819;52.976;6.846;2022-12-07T11:38:56;2.17;;;0.80;;
62092;SDS011;59819;52.976;6.846;2022-12-07T11:41:24;2.13;;;0.60;;
62092;SDS011;59819;52.976;6.846;2022-12-07T11:43:54;6.70;;;0.90;;
62092;SDS011;59819;52.976;6.846;2022-12-07T11:46:21;2.28;;;0.90;;
62092;SDS011;59819;52.976;6.846;2022-12-07T11:49:12;1.23;;;0.70;;
62092;SDS011;59819;52.976;6.846;2022-12-07T11:51:36;2.72;;;0.80;;
62092;SDS011;59819;52.976;6.846;2022-12-07T11:54:05;5.13;;;0.88;;
62092;SDS011;59819;52.976;6.846;2022-12-07T11:56:36;1.67;;;0.52;;
62092;SDS011;59819;52.976;6.846;2022-12-07T12:02:15;0.30;;;0.22;;
62092;SDS011;59819;52.976;6.846;2022-12-07T12:06:50;0.93;;;0.47;;
62092;SDS011;59819;52.976;6.846;2022-12-07T12:09:29;1.42;;;0.40;;
62092;SDS011;59819;52.976;6.846;2022-12-07T12:17:29;3.55;;;0.55;;
62092;SDS011;59819;52.976;6.846;2022-12-07T12:20:02;1.20;;;0.30;;
62092;SDS011;59819;52.976;6.846;2022-12-07T12:22:33;0.68;;;0.20;;
62092;SDS011;59819;52.976;6.846;2022-12-07T12:25:02;1.27;;;0.50;;
62092;SDS011;59819;52.976;6.846;2022-12-07T12:27:30;2.15;;;0.35;;
62092;SDS011;59819;52.976;6.846;2022-12-07T12:29:59;1.10;;;0.30;;
62092;SDS011;59819;52.976;6.846;2022-12-07T12:37:48;1.58;;;0.40;;
62092;SDS011;59819;52.976;6.846;2022-12-07T12:42:48;0.77;;;0.40;;
62092;SDS011;59819;52.976;6.846;2022-12-07T12:45:33;1.48;;;0.50;;
62092;SDS011;59819;52.976;6.846;2022-12-07T12:52:58;1.50;;;0.50;;
62092;SDS011;59819;52.976;6.846;2022-12-07T13:00:46;3.20;;;1.00;;
62092;SDS011;59819;52.976;6.846;2022-12-07T13:03:24;3.30;;;0.65;;
62092;SDS011;59819;52.976;6.846;2022-12-07T13:08:37;3.15;;;0.80;;
62092;SDS011;59819;52.976;6.846;2022-12-07T13:11:48;5.30;;;1.10;;
62092;SDS011;59819;52.976;6.846;2022-12-07T13:16:40;3.92;;;1.08;;
62092;SDS011;59819;52.976;6.846;2022-12-07T13:19:31;3.58;;;0.98;;
62092;SDS011;59819;52.976;6.846;2022-12-07T13:27:25;1.83;;;0.65;;
62092;SDS011;59819;52.976;6.846;2022-12-07T13:29:53;4.90;;;0.82;;
62092;SDS011;59819;52.976;6.846;2022-12-07T13:32:26;2.08;;;0.80;;
62092;SDS011;59819;52.976;6.846;2022-12-07T13:34:52;1.85;;;0.80;;
62092;SDS011;59819;52.976;6.846;2022-12-07T13:37:26;1.00;;;0.60;;
62092;SDS011;59819;52.976;6.846;2022-12-07T13:39:53;2.60;;;0.50;;
62092;SDS011;59819;52.976;6.846;2022-12-07T13:42:30;2.78;;;0.60;;
62092;SDS011;59819;52.976;6.846;2022-12-07T13:44:57;1.00;;;0.40;;
62092;SDS011;59819;52.976;6.846;2022-12-07T13:47:39;1.08;;;0.40;;
62092;SDS011;59819;52.976;6.846;2022-12-07T13:52:48;1.52;;;0.43;;
62092;SDS011;59819;52.976;6.846;2022-12-07T13:55:15;2.20;;;0.65;;
62092;SDS011;59819;52.976;6.846;2022-12-07T13:57:42;1.73;;;0.30;;
62092;SDS011;59819;52.976;6.846;2022-12-07T14:00:15;1.25;;;0.40;;
62092;SDS011;59819;52.976;6.846;2022-12-07T14:02:54;1.45;;;0.47;;
62092;SDS011;59819;52.976;6.846;2022-12-07T14:05:25;1.25;;;0.30;;
62092;SDS011;59819;52.976;6.846;2022-12-07T14:16:26;1.02;;;0.40;;
62092;SDS011;59819;52.976;6.846;2022-12-07T14:18:51;0.30;;;0.30;;
62092;SDS011;59819;52.976;6.846;2022-12-07T14:21:19;1.90;;;0.40;;
62092;SDS011;59819;52.976;6.846;2022-12-07T14:23:45;1.17;;;0.40;;
62092;SDS011;59819;52.976;6.846;2022-12-07T14:26:12;2.35;;;0.43;;
62092;SDS011;59819;52.976;6.846;2022-12-07T14:28:39;1.08;;;0.40;;
62092;SDS011;59819;52.976;6.846;2022-12-07T14:31:13;0.90;;;0.43;;
62092;SDS011;59819;52.976;6.846;2022-12-07T14:33:39;1.10;;;0.40;;
62092;SDS011;59819;52.976;6.846;2022-12-07T14:36:08;1.15;;;0.30;;
62092;SDS011;59819;52.976;6.846;2022-12-07T14:38:34;0.90;;;0.50;;
62092;SDS011;59819;52.976;6.846;2022-12-07T14:41:00;0.50;;;0.30;;
62092;SDS011;59819;52.976;6.846;2022-12-07T14:43:45;1.98;;;0.50;;
62092;SDS011;59819;52.976;6.846;2022-12-07T14:46:11;1.60;;;0.30;;
62092;SDS011;59819;52.976;6.846;2022-12-07T14:48:37;0.43;;;0.30;;
62092;SDS011;59819;52.976;6.846;2022-12-07T14:51:03;1.63;;;0.40;;
62092;SDS011;59819;52.976;6.846;2022-12-07T14:53:33;2.55;;;1.30;;
62092;SDS011;59819;52.976;6.846;2022-12-07T14:56:00;1.38;;;1.27;;
62092;SDS011;59819;52.976;6.846;2022-12-07T14:58:27;1.92;;;0.80;;
62092;SDS011;59819;52.976;6.846;2022-12-07T15:00:53;1.63;;;1.13;;
62092;SDS011;59819;52.976;6.846;2022-12-07T15:03:19;1.90;;;0.90;;
62092;SDS011;59819;52.976;6.846;2022-12-07T15:05:45;0.52;;;0.50;;
62092;SDS011;59819;52.976;6.846;2022-12-07T15:08:12;1.38;;;0.50;;
62092;SDS011;59819;52.976;6.846;2022-12-07T15:10:38;1.88;;;0.98;;
62092;SDS011;59819;52.976;6.846;2022-12-07T15:13:05;1.27;;;0.40;;
62092;SDS011;59819;52.976;6.846;2022-12-07T15:15:50;0.63;;;0.50;;
62092;SDS011;59819;52.976;6.846;2022-12-07T15:18:17;0.70;;;0.50;;
62092;SDS011;59819;52.976;6.846;2022-12-07T15:20:43;1.58;;;0.60;;
62092;SDS011;59819;52.976;6.846;2022-12-07T15:23:10;1.02;;;0.57;;
62092;SDS011;59819;52.976;6.846;2022-12-07T15:25:36;2.50;;;0.70;;
62092;SDS011;59819;52.976;6.846;2022-12-07T15:28:05;1.20;;;0.50;;
62092;SDS011;59819;52.976;6.846;2022-12-07T15:30:31;1.65;;;0.40;;
62092;SDS011;59819;52.976;6.846;2022-12-07T15:32:57;3.78;;;0.50;;
62092;SDS011;59819;52.976;6.846;2022-12-07T15:35:23;0.80;;;0.43;;
62092;SDS011;59819;52.976;6.846;2022-12-07T15:37:49;2.33;;;0.30;;
62092;SDS011;59819;52.976;6.846;2022-12-07T15:40:15;3.70;;;0.50;;
62092;SDS011;59819;52.976;6.846;2022-12-07T15:42:41;1.05;;;0.40;;
62092;SDS011;59819;52.976;6.846;2022-12-07T15:45:08;2.75;;;0.70;;
62092;SDS011;59819;52.976;6.846;2022-12-07T15:47:35;3.97;;;0.70;;
62092;SDS011;59819;52.976;6.846;2022-12-07T15:50:03;0.90;;;0.52;;
62092;SDS011;59819;52.976;6.846;2022-12-07T15:52:29;2.75;;;0.60;;
62092;SDS011;59819;52.976;6.846;2022-12-07T15:54:55;1.73;;;0.60;;
62092;SDS011;59819;52.976;6.846;2022-12-07T15:57:21;1.40;;;0.70;;
62092;SDS011;59819;52.976;6.846;2022-12-07T15:59:47;1.30;;;0.70;;
62092;SDS011;59819;52.976;6.846;2022-12-07T16:02:13;1.55;;;0.68;;
62092;SDS011;59819;52.976;6.846;2022-12-07T16:04:39;1.13;;;0.65;;
62092;SDS011;59819;52.976;6.846;2022-12-07T16:07:05;0.52;;;0.52;;
62092;SDS011;59819;52.976;6.846;2022-12-07T16:09:31;2.40;;;0.88;;
62092;SDS011;59819;52.976;6.846;2022-12-07T16:11:57;2.75;;;0.77;;
62092;SDS011;59819;52.976;6.846;2022-12-07T16:14:23;0.80;;;0.80;;
62092;SDS011;59819;52.976;6.846;2022-12-07T16:16:49;1.90;;;0.80;;
62092;SDS011;59819;52.976;6.846;2022-12-07T16:19:16;1.83;;;0.80;;
62092;SDS011;59819;52.976;6.846;2022-12-07T16:21:42;4.40;;;1.30;;
62092;SDS011;59819;52.976;6.846;2022-12-07T16:24:08;4.10;;;1.05;;
62092;SDS011;59819;52.976;6.846;2022-12-07T16:26:35;3.10;;;1.10;;
62092;SDS011;59819;52.976;6.846;2022-12-07T16:29:01;3.50;;;1.20;;
62092;SDS011;59819;52.976;6.846;2022-12-07T16:31:28;3.00;;;1.00;;
62092;SDS011;59819;52.976;6.846;2022-12-07T16:33:56;1.55;;;0.90;;
62092;SDS011;59819;52.976;6.846;2022-12-07T16:36:22;1.90;;;1.00;;
62092;SDS011;59819;52.976;6.846;2022-12-07T16:38:50;2.30;;;0.90;;
62092;SDS011;59819;52.976;6.846;2022-12-07T16:41:16;2.30;;;0.90;;
62092;SDS011;59819;52.976;6.846;2022-12-07T16:43:43;1.40;;;1.00;;
62092;SDS011;59819;52.976;6.846;2022-12-07T16:46:10;1.60;;;0.90;;
62092;SDS011;59819;52.976;6.846;2022-12-07T16:48:37;2.15;;;0.73;;
62092;SDS011;59819;52.976;6.846;2022-12-07T16:51:04;2.95;;;0.95;;